sensor_id;sensor_type;location;lat;lon;timestamp;pressure;altitude;pressure_sealevel;temperature;humidity
56392;BME280;76123;53.584;9.978;2024-02-21T00:01:14;101866.50;;;7.85;86.60
56392;BME280;76123;53.584;9.978;2024-02-21T00:03:41;101861.31;;;7.82;87.04
56392;BME280;76123;53.584;9.978;2024-02-21T00:06:09;101855.25;;;7.78;87.23
56392;BME280;76123;53.584;9.978;2024-02-21T00:08:35;101855.25;;;7.78;87.68
56392;BME280;76123;53.584;9.978;2024-02-21T00:11:02;101850.94;;;7.76;87.62
56392;BME280;76123;53.584;9.978;2024-02-21T00:13:29;101858.91;;;7.73;87.96
56392;BME280;76123;53.584;9.978;2024-02-21T00:15:55;101845.75;;;7.71;87.78
56392;BME280;76123;53.584;9.978;2024-02-21T00:18:22;101844.94;;;7.69;88.52
56392;BME280;76123;53.584;9.978;2024-02-21T00:20:48;101839.63;;;7.71;88.36
56392;BME280;76123;53.584;9.978;2024-02-21T00:23:16;101837.69;;;7.79;87.71
56392;BME280;76123;53.584;9.978;2024-02-21T00:25:43;101830.81;;;7.72;87.71
56392;BME280;76123;53.584;9.978;2024-02-21T00:28:09;101828.25;;;7.69;88.59
56392;BME280;76123;53.584;9.978;2024-02-21T00:30:36;101813.28;;;7.71;88.50
56392;BME280;76123;53.584;9.978;2024-02-21T00:33:04;101817.66;;;7.72;88.35
56392;BME280;76123;53.584;9.978;2024-02-21T00:35:30;101814.09;;;7.74;88.26
56392;BME280;76123;53.584;9.978;2024-02-21T00:37:57;101806.25;;;7.70;88.13
56392;BME280;76123;53.584;9.978;2024-02-21T00:40:26;101807.06;;;7.73;88.24
56392;BME280;76123;53.584;9.978;2024-02-21T00:42:52;101799.06;;;7.78;87.82
56392;BME280;76123;53.584;9.978;2024-02-21T00:45:19;101791.28;;;7.73;87.88
56392;BME280;76123;53.584;9.978;2024-02-21T00:47:45;101798.25;;;7.76;88.00
56392;BME280;76123;53.584;9.978;2024-02-21T00:50:12;101793.88;;;7.75;88.40
56392;BME280;76123;53.584;9.978;2024-02-21T00:52:39;101805.25;;;7.75;88.37
56392;BME280;76123;53.584;9.978;2024-02-21T00:55:07;101805.19;;;7.78;88.40
56392;BME280;76123;53.584;9.978;2024-02-21T00:57:35;101800.75;;;7.80;87.78
56392;BME280;76123;53.584;9.978;2024-02-21T01:00:02;101794.66;;;7.78;88.01
56392;BME280;76123;53.584;9.978;2024-02-21T01:02:29;101787.63;;;7.79;88.07
56392;BME280;76123;53.584;9.978;2024-02-21T01:04:56;101784.09;;;7.80;87.79
56392;BME280;76123;53.584;9.978;2024-02-21T01:07:23;101775.28;;;7.81;88.18
56392;BME280;76123;53.584;9.978;2024-02-21T01:09:50;101777.88;;;7.82;87.68
56392;BME280;76123;53.584;9.978;2024-02-21T01:12:17;101776.97;;;7.83;88.47
56392;BME280;76123;53.584;9.978;2024-02-21T01:14:45;101764.66;;;7.84;87.69
56392;BME280;76123;53.584;9.978;2024-02-21T01:17:12;101756.78;;;7.82;88.24
56392;BME280;76123;53.584;9.978;2024-02-21T01:19:39;101766.44;;;7.83;88.62
56392;BME280;76123;53.584;9.978;2024-02-21T01:22:05;101773.41;;;7.86;88.35
56392;BME280;76123;53.584;9.978;2024-02-21T01:24:32;101754.91;;;7.88;88.54
56392;BME280;76123;53.584;9.978;2024-02-21T01:26:58;101764.59;;;7.87;88.66
56392;BME280;76123;53.584;9.978;2024-02-21T01:29:25;101760.28;;;7.85;89.02
56392;BME280;76123;53.584;9.978;2024-02-21T01:31:53;101771.69;;;7.83;89.30
56392;BME280;76123;53.584;9.978;2024-02-21T01:34:19;101762.97;;;7.81;88.74
56392;BME280;76123;53.584;9.978;2024-02-21T01:36:46;101758.66;;;7.79;89.51
56392;BME280;76123;53.584;9.978;2024-02-21T01:39:12;101746.38;;;7.78;90.07
56392;BME280;76123;53.584;9.978;2024-02-21T01:41:39;101738.47;;;7.78;90.51
56392;BME280;76123;53.584;9.978;2024-02-21T01:44:06;101735.09;;;7.71;90.94
56392;BME280;76123;53.584;9.978;2024-02-21T01:46:32;101729.03;;;7.69;91.35
56392;BME280;76123;53.584;9.978;2024-02-21T01:49:01;101729.19;;;7.63;91.94
56392;BME280;76123;53.584;9.978;2024-02-21T01:51:30;101723.16;;;7.58;92.07
56392;BME280;76123;53.584;9.978;2024-02-21T01:53:57;101725.91;;;7.53;93.33
56392;BME280;76123;53.584;9.978;2024-02-21T01:56:24;101723.38;;;7.48;93.37
56392;BME280;76123;53.584;9.978;2024-02-21T01:58:51;101720.81;;;7.45;93.21
56392;BME280;76123;53.584;9.978;2024-02-21T02:01:18;101722.69;;;7.40;93.70
56392;BME280;76123;53.584;9.978;2024-02-21T02:03:45;101702.56;;;7.38;94.16
56392;BME280;76123;53.584;9.978;2024-02-21T02:06:14;101697.28;;;7.38;93.99
56392;BME280;76123;53.584;9.978;2024-02-21T02:08:41;101691.16;;;7.37;94.15
56392;BME280;76123;53.584;9.978;2024-02-21T02:11:08;101678.88;;;7.38;94.06
56392;BME280;76123;53.584;9.978;2024-02-21T02:13:35;101673.63;;;7.36;94.40
56392;BME280;76123;53.584;9.978;2024-02-21T02:16:01;101667.47;;;7.37;95.24
56392;BME280;76123;53.584;9.978;2024-02-21T02:18:29;101657.03;;;7.34;95.11
56392;BME280;76123;53.584;9.978;2024-02-21T02:20:55;101634.22;;;7.33;94.91
56392;BME280;76123;53.584;9.978;2024-02-21T02:23:24;101617.63;;;7.31;94.26
56392;BME280;76123;53.584;9.978;2024-02-21T02:25:51;101601.81;;;7.31;94.78
56392;BME280;76123;53.584;9.978;2024-02-21T02:28:18;101582.56;;;7.29;95.05
56392;BME280;76123;53.584;9.978;2024-02-21T02:30:45;101557.16;;;7.28;94.82
56392;BME280;76123;53.584;9.978;2024-02-21T02:33:12;101552.75;;;7.28;94.81
56392;BME280;76123;53.584;9.978;2024-02-21T02:35:37;101535.19;;;7.29;94.23
56392;BME280;76123;53.584;9.978;2024-02-21T02:38:04;101550.13;;;7.28;94.51
56392;BME280;76123;53.584;9.978;2024-02-21T02:40:33;101543.03;;;7.30;93.88
56392;BME280;76123;53.584;9.978;2024-02-21T02:43:00;101549.06;;;7.36;93.94
56392;BME280;76123;53.584;9.978;2024-02-21T02:45:27;101558.59;;;7.40;93.57
56392;BME280;76123;53.584;9.978;2024-02-21T02:47:53;101574.28;;;7.44;93.08
56392;BME280;76123;53.584;9.978;2024-02-21T02:50:22;101578.59;;;7.47;92.74
56392;BME280;76123;53.584;9.978;2024-02-21T02:52:49;101583.81;;;7.48;92.81
56392;BME280;76123;53.584;9.978;2024-02-21T02:55:15;101580.22;;;7.53;92.17
56392;BME280;76123;53.584;9.978;2024-02-21T02:57:43;101573.13;;;7.55;92.22
56392;BME280;76123;53.584;9.978;2024-02-21T03:00:11;101583.63;;;7.56;92.25
56392;BME280;76123;53.584;9.978;2024-02-21T03:02:39;101594.94;;;7.60;91.81
56392;BME280;76123;53.584;9.978;2024-02-21T03:05:12;101590.44;;;7.63;91.65
56392;BME280;76123;53.584;9.978;2024-02-21T03:07:39;101608.00;;;7.64;91.70
56392;BME280;76123;53.584;9.978;2024-02-21T03:10:07;101615.63;;;7.74;91.06
56392;BME280;76123;53.584;9.978;2024-02-21T03:12:33;101618.34;;;7.71;90.94
56392;BME280;76123;53.584;9.978;2024-02-21T03:15:01;101615.69;;;7.72;90.97
56392;BME280;76123;53.584;9.978;2024-02-21T03:17:28;101612.19;;;7.72;91.11
56392;BME280;76123;53.584;9.978;2024-02-21T03:19:54;101613.94;;;7.71;91.13
56392;BME280;76123;53.584;9.978;2024-02-21T03:22:21;101614.69;;;7.76;89.69
56392;BME280;76123;53.584;9.978;2024-02-21T03:24:48;101608.63;;;7.74;90.31
56392;BME280;76123;53.584;9.978;2024-02-21T03:27:14;101608.41;;;7.82;90.50
56392;BME280;76123;53.584;9.978;2024-02-21T03:29:41;101613.72;;;7.80;89.73
56392;BME280;76123;53.584;9.978;2024-02-21T03:32:09;101617.16;;;7.82;89.42
56392;BME280;76123;53.584;9.978;2024-02-21T03:34:36;101611.84;;;7.84;89.92
56392;BME280;76123;53.584;9.978;2024-02-21T03:37:03;101620.63;;;7.85;90.24
56392;BME280;76123;53.584;9.978;2024-02-21T03:39:30;101622.34;;;7.87;90.03
56392;BME280;76123;53.584;9.978;2024-02-21T03:41:57;101598.53;;;7.90;89.72
56392;BME280;76123;53.584;9.978;2024-02-21T03:44:25;101608.13;;;7.91;89.60
56392;BME280;76123;53.584;9.978;2024-02-21T03:46:52;101606.16;;;7.99;88.73
56392;BME280;76123;53.584;9.978;2024-02-21T03:49:20;101615.91;;;7.97;88.68
56392;BME280;76123;53.584;9.978;2024-02-21T03:51:46;101609.78;;;7.95;88.92
56392;BME280;76123;53.584;9.978;2024-02-21T03:54:13;101617.78;;;7.92;89.72
56392;BME280;76123;53.584;9.978;2024-02-21T03:56:39;101609.88;;;7.92;90.25
56392;BME280;76123;53.584;9.978;2024-02-21T03:59:06;101612.78;;;7.83;90.29
56392;BME280;76123;53.584;9.978;2024-02-21T04:01:33;101600.59;;;7.79;91.25
56392;BME280;76123;53.584;9.978;2024-02-21T04:03:59;101600.69;;;7.76;91.37
56392;BME280;76123;53.584;9.978;2024-02-21T04:06:27;101611.41;;;7.68;92.06
56392;BME280;76123;53.584;9.978;2024-02-21T04:08:54;101593.00;;;7.67;91.70
56392;BME280;76123;53.584;9.978;2024-02-21T04:11:21;101601.97;;;7.59;92.64
56392;BME280;76123;53.584;9.978;2024-02-21T04:13:47;101597.59;;;7.60;92.25
56392;BME280;76123;53.584;9.978;2024-02-21T04:16:15;101591.38;;;7.61;92.66
56392;BME280;76123;53.584;9.978;2024-02-21T04:18:42;101593.16;;;7.60;92.36
56392;BME280;76123;53.584;9.978;2024-02-21T04:21:09;101591.47;;;7.58;93.17
56392;BME280;76123;53.584;9.978;2024-02-21T04:23:37;101598.53;;;7.57;92.89
56392;BME280;76123;53.584;9.978;2024-02-21T04:26:04;101579.28;;;7.54;93.20
56392;BME280;76123;53.584;9.978;2024-02-21T04:28:30;101573.22;;;7.52;93.09
56392;BME280;76123;53.584;9.978;2024-02-21T04:30:57;101565.34;;;7.50;93.38
56392;BME280;76123;53.584;9.978;2024-02-21T04:33:24;101565.34;;;7.50;93.19
56392;BME280;76123;53.584;9.978;2024-02-21T04:35:50;101562.63;;;7.53;93.67
56392;BME280;76123;53.584;9.978;2024-02-21T04:38:17;101567.00;;;7.54;93.05
56392;BME280;76123;53.584;9.978;2024-02-21T04:40:45;101573.25;;;7.50;93.70
56392;BME280;76123;53.584;9.978;2024-02-21T04:43:11;101573.34;;;7.47;94.06
56392;BME280;76123;53.584;9.978;2024-02-21T04:45:38;101572.50;;;7.45;94.50
56392;BME280;76123;53.584;9.978;2024-02-21T04:48:05;101571.63;;;7.44;94.06
56392;BME280;76123;53.584;9.978;2024-02-21T04:50:32;101561.25;;;7.40;94.46
56392;BME280;76123;53.584;9.978;2024-02-21T04:52:58;101564.84;;;7.36;95.14
56392;BME280;76123;53.584;9.978;2024-02-21T04:55:25;101564.75;;;7.39;94.72
56392;BME280;76123;53.584;9.978;2024-02-21T04:57:53;101567.41;;;7.39;95.34
56392;BME280;76123;53.584;9.978;2024-02-21T05:00:19;101566.53;;;7.38;94.95
56392;BME280;76123;53.584;9.978;2024-02-21T05:02:46;101563.06;;;7.36;95.73
56392;BME280;76123;53.584;9.978;2024-02-21T05:05:13;101560.44;;;7.36;95.41
56392;BME280;76123;53.584;9.978;2024-02-21T05:07:40;101560.44;;;7.36;95.59
56392;BME280;76123;53.584;9.978;2024-02-21T05:10:07;101569.25;;;7.35;95.62
56392;BME280;76123;53.584;9.978;2024-02-21T05:12:34;101568.47;;;7.32;95.88
56392;BME280;76123;53.584;9.978;2024-02-21T05:15:03;101557.03;;;7.33;96.00
56392;BME280;76123;53.584;9.978;2024-02-21T05:17:30;101546.56;;;7.31;96.12
56392;BME280;76123;53.584;9.978;2024-02-21T05:19:58;101543.91;;;7.31;95.70
56392;BME280;76123;53.584;9.978;2024-02-21T05:22:24;101552.75;;;7.28;95.87
56392;BME280;76123;53.584;9.978;2024-02-21T05:24:51;101548.34;;;7.29;96.42
56392;BME280;76123;53.584;9.978;2024-02-21T05:27:17;101550.94;;;7.30;95.65
56392;BME280;76123;53.584;9.978;2024-02-21T05:29:44;101552.75;;;7.28;95.83
56392;BME280;76123;53.584;9.978;2024-02-21T05:32:12;101549.25;;;7.28;95.72
56392;BME280;76123;53.584;9.978;2024-02-21T05:34:38;101547.47;;;7.28;95.97
56392;BME280;76123;53.584;9.978;2024-02-21T05:37:05;101544.84;;;7.28;95.95
56392;BME280;76123;53.584;9.978;2024-02-21T05:39:32;101543.97;;;7.29;96.12
56392;BME280;76123;53.584;9.978;2024-02-21T05:41:58;101541.38;;;7.28;96.17
56392;BME280;76123;53.584;9.978;2024-02-21T05:44:25;101533.47;;;7.28;96.12
56392;BME280;76123;53.584;9.978;2024-02-21T05:46:52;101538.75;;;7.26;96.19
56392;BME280;76123;53.584;9.978;2024-02-21T05:49:20;101544.91;;;7.27;95.87
56392;BME280;76123;53.584;9.978;2024-02-21T05:51:46;101539.59;;;7.28;96.15
56392;BME280;76123;53.584;9.978;2024-02-21T05:54:13;101542.34;;;7.24;96.12
56392;BME280;76123;53.584;9.978;2024-02-21T05:56:44;101540.53;;;7.26;95.70
56392;BME280;76123;53.584;9.978;2024-02-21T05:59:10;101542.31;;;7.25;96.15
56392;BME280;76123;53.584;9.978;2024-02-21T06:01:37;101555.53;;;7.22;96.50
56392;BME280;76123;53.584;9.978;2024-02-21T06:04:03;101542.44;;;7.21;96.45
56392;BME280;76123;53.584;9.978;2024-02-21T06:06:32;101543.28;;;7.21;96.01
56392;BME280;76123;53.584;9.978;2024-02-21T06:08:59;101555.53;;;7.22;96.95
56392;BME280;76123;53.584;9.978;2024-02-21T06:11:28;101558.13;;;7.24;97.04
56392;BME280;76123;53.584;9.978;2024-02-21T06:13:55;101569.59;;;7.21;97.09
56392;BME280;76123;53.584;9.978;2024-02-21T06:16:21;101579.28;;;7.19;96.83
56392;BME280;76123;53.584;9.978;2024-02-21T06:18:48;101560.84;;;7.21;96.90
56392;BME280;76123;53.584;9.978;2024-02-21T06:21:14;101568.75;;;7.21;97.08
56392;BME280;76123;53.584;9.978;2024-02-21T06:23:43;101565.16;;;7.23;97.48
56392;BME280;76123;53.584;9.978;2024-02-21T06:26:09;101562.56;;;7.22;97.67
56392;BME280;76123;53.584;9.978;2024-02-21T06:28:36;101561.59;;;7.26;97.42
56392;BME280;76123;53.584;9.978;2024-02-21T06:31:03;101557.28;;;7.22;97.06
56392;BME280;76123;53.584;9.978;2024-02-21T06:33:30;101556.31;;;7.26;98.02
56392;BME280;76123;53.584;9.978;2024-02-21T06:35:56;101552.03;;;7.22;96.89
56392;BME280;76123;53.584;9.978;2024-02-21T06:38:23;101565.16;;;7.23;97.27
56392;BME280;76123;53.584;9.978;2024-02-21T06:40:50;101555.59;;;7.21;97.19
56392;BME280;76123;53.584;9.978;2024-02-21T06:43:18;101562.56;;;7.22;97.50
56392;BME280;76123;53.584;9.978;2024-02-21T06:45:45;101559.88;;;7.23;96.89
56392;BME280;76123;53.584;9.978;2024-02-21T06:48:16;101559.94;;;7.22;97.29
56392;BME280;76123;53.584;9.978;2024-02-21T06:50:42;101552.91;;;7.22;97.91
56392;BME280;76123;53.584;9.978;2024-02-21T06:53:09;101554.63;;;7.23;97.53
56392;BME280;76123;53.584;9.978;2024-02-21T06:55:36;101555.38;;;7.28;97.05
56392;BME280;76123;53.584;9.978;2024-02-21T06:58:04;101549.22;;;7.29;97.39
56392;BME280;76123;53.584;9.978;2024-02-21T07:00:30;101557.16;;;7.28;97.28
56392;BME280;76123;53.584;9.978;2024-02-21T07:02:57;101564.09;;;7.30;96.96
56392;BME280;76123;53.584;9.978;2024-02-21T07:05:23;101552.75;;;7.28;96.89
56392;BME280;76123;53.584;9.978;2024-02-21T07:07:50;101550.97;;;7.29;97.22
56392;BME280;76123;53.584;9.978;2024-02-21T07:10:16;101567.69;;;7.28;97.46
56392;BME280;76123;53.584;9.978;2024-02-21T07:12:43;101551.84;;;7.29;97.53
56392;BME280;76123;53.584;9.978;2024-02-21T07:15:11;101550.94;;;7.30;97.32
56392;BME280;76123;53.584;9.978;2024-02-21T07:17:37;101547.44;;;7.30;97.45
56392;BME280;76123;53.584;9.978;2024-02-21T07:20:05;101549.31;;;7.25;97.52
56392;BME280;76123;53.584;9.978;2024-02-21T07:22:32;101549.22;;;7.29;96.63
56392;BME280;76123;53.584;9.978;2024-02-21T07:25:01;101552.66;;;7.32;97.08
56392;BME280;76123;53.584;9.978;2024-02-21T07:27:28;101554.31;;;7.36;96.96
56392;BME280;76123;53.584;9.978;2024-02-21T07:29:57;101567.47;;;7.36;97.54
56392;BME280;76123;53.584;9.978;2024-02-21T07:32:25;101561.38;;;7.35;96.93
56392;BME280;76123;53.584;9.978;2024-02-21T07:34:52;101559.66;;;7.33;96.51
56392;BME280;76123;53.584;9.978;2024-02-21T07:37:18;101568.41;;;7.33;97.12
56392;BME280;76123;53.584;9.978;2024-02-21T07:39:45;101573.59;;;7.36;97.38
56392;BME280;76123;53.584;9.978;2024-02-21T07:42:11;101568.25;;;7.39;96.76
56392;BME280;76123;53.584;9.978;2024-02-21T07:44:38;101572.59;;;7.42;96.53
56392;BME280;76123;53.584;9.978;2024-02-21T07:47:05;101578.75;;;7.41;96.82
56392;BME280;76123;53.584;9.978;2024-02-21T07:49:40;101571.78;;;7.40;96.51
56392;BME280;76123;53.584;9.978;2024-02-21T07:52:07;101566.50;;;7.40;96.71
56392;BME280;76123;53.584;9.978;2024-02-21T07:54:33;101574.34;;;7.41;96.89
56392;BME280;76123;53.584;9.978;2024-02-21T07:57:00;101573.44;;;7.42;96.64
56392;BME280;76123;53.584;9.978;2024-02-21T07:59:28;101584.09;;;7.38;96.23
56392;BME280;76123;53.584;9.978;2024-02-21T08:01:56;101586.69;;;7.39;96.03
56392;BME280;76123;53.584;9.978;2024-02-21T08:04:22;101576.19;;;7.38;96.34
56392;BME280;76123;53.584;9.978;2024-02-21T08:06:52;101570.84;;;7.41;96.20
56392;BME280;76123;53.584;9.978;2024-02-21T08:09:21;101573.28;;;7.48;96.19
56392;BME280;76123;53.584;9.978;2024-02-21T08:11:48;101565.41;;;7.48;95.87
56392;BME280;76123;53.584;9.978;2024-02-21T08:14:15;101563.50;;;7.54;95.88
56392;BME280;76123;53.584;9.978;2024-02-21T08:16:42;101567.84;;;7.55;95.93
56392;BME280;76123;53.584;9.978;2024-02-21T08:19:09;101569.69;;;7.53;95.00
56392;BME280;76123;53.584;9.978;2024-02-21T08:21:35;101563.50;;;7.54;95.66
56392;BME280;76123;53.584;9.978;2024-02-21T08:24:04;101559.19;;;7.50;93.77
56392;BME280;76123;53.584;9.978;2024-02-21T08:26:31;101560.31;;;7.41;93.18
56392;BME280;76123;53.584;9.978;2024-02-21T08:28:57;101553.31;;;7.41;92.84
56392;BME280;76123;53.584;9.978;2024-02-21T08:31:25;101553.16;;;7.46;93.61
56392;BME280;76123;53.584;9.978;2024-02-21T08:33:56;101560.97;;;7.49;93.76
56392;BME280;76123;53.584;9.978;2024-02-21T08:36:27;101559.09;;;7.54;93.67
56392;BME280;76123;53.584;9.978;2024-02-21T08:38:54;101547.91;;;7.46;93.38
56392;BME280;76123;53.584;9.978;2024-02-21T08:41:23;101548.84;;;7.43;93.44
56392;BME280;76123;53.584;9.978;2024-02-21T08:43:50;101540.06;;;7.44;94.20
56392;BME280;76123;53.584;9.978;2024-02-21T08:46:16;101532.91;;;7.48;94.91
56392;BME280;76123;53.584;9.978;2024-02-21T08:48:43;101538.91;;;7.55;94.56
56392;BME280;76123;53.584;9.978;2024-02-21T08:51:11;101538.91;;;7.55;93.89
56392;BME280;76123;53.584;9.978;2024-02-21T08:53:38;101549.38;;;7.56;94.59
56392;BME280;76123;53.584;9.978;2024-02-21T08:56:05;101546.53;;;7.64;94.53
56392;BME280;76123;53.584;9.978;2024-02-21T08:58:34;101548.28;;;7.65;94.63
56392;BME280;76123;53.584;9.978;2024-02-21T09:01:02;101545.91;;;7.56;93.87
56392;BME280;76123;53.584;9.978;2024-02-21T09:03:31;101553.72;;;7.59;93.88
56392;BME280;76123;53.584;9.978;2024-02-21T09:05:57;101543.34;;;7.53;93.98
56392;BME280;76123;53.584;9.978;2024-02-21T09:08:24;101543.94;;;7.62;94.93
56392;BME280;76123;53.584;9.978;2024-02-21T09:10:51;101540.38;;;7.65;94.76
56392;BME280;76123;53.584;9.978;2024-02-21T09:13:17;101543.75;;;7.70;94.18
56392;BME280;76123;53.584;9.978;2024-02-21T09:15:47;101543.13;;;7.60;94.15
56392;BME280;76123;53.584;9.978;2024-02-21T09:18:14;101537.00;;;7.60;94.56
56392;BME280;76123;53.584;9.978;2024-02-21T09:20:40;101536.75;;;7.69;94.82
56392;BME280;76123;53.584;9.978;2024-02-21T09:23:07;101529.31;;;7.52;92.52
56392;BME280;76123;53.584;9.978;2024-02-21T09:25:33;101527.41;;;7.57;93.76
56392;BME280;76123;53.584;9.978;2024-02-21T09:28:01;101528.22;;;7.59;94.16
56392;BME280;76123;53.584;9.978;2024-02-21T09:30:28;101523.22;;;7.50;93.91
56392;BME280;76123;53.584;9.978;2024-02-21T09:32:56;101527.66;;;7.48;93.29
56392;BME280;76123;53.584;9.978;2024-02-21T09:35:24;101525.03;;;7.48;94.03
56392;BME280;76123;53.584;9.978;2024-02-21T09:37:52;101519.00;;;7.44;94.23
56392;BME280;76123;53.584;9.978;2024-02-21T09:40:18;101514.38;;;7.53;94.65
56392;BME280;76123;53.584;9.978;2024-02-21T09:42:47;101513.53;;;7.51;95.39
56392;BME280;76123;53.584;9.978;2024-02-21T09:45:19;101510.88;;;7.52;94.95
56392;BME280;76123;53.584;9.978;2024-02-21T09:47:57;101503.84;;;7.53;94.84
56392;BME280;76123;53.584;9.978;2024-02-21T09:50:32;101515.00;;;7.61;95.44
56392;BME280;76123;53.584;9.978;2024-02-21T09:53:02;101509.06;;;7.54;94.67
56392;BME280;76123;53.584;9.978;2024-02-21T09:55:29;101509.94;;;7.55;95.08
56392;BME280;76123;53.584;9.978;2024-02-21T09:57:58;101498.41;;;7.59;95.25
56392;BME280;76123;53.584;9.978;2024-02-21T10:00:25;101507.97;;;7.63;95.98
56392;BME280;76123;53.584;9.978;2024-02-21T10:02:52;101502.50;;;7.69;96.10
56392;BME280;76123;53.584;9.978;2024-02-21T10:05:19;101508.81;;;7.63;95.90
56392;BME280;76123;53.584;9.978;2024-02-21T10:07:48;101502.13;;;7.52;95.27
56392;BME280;76123;53.584;9.978;2024-02-21T10:10:15;101501.97;;;7.56;96.06
56392;BME280;76123;53.584;9.978;2024-02-21T10:12:48;101500.28;;;7.54;96.04
56392;BME280;76123;53.584;9.978;2024-02-21T10:15:19;101496.63;;;7.59;95.58
56392;BME280;76123;53.584;9.978;2024-02-21T10:17:46;101503.72;;;7.57;95.91
56392;BME280;76123;53.584;9.978;2024-02-21T10:20:13;101505.31;;;7.63;95.55
56392;BME280;76123;53.584;9.978;2024-02-21T10:22:40;101502.69;;;7.63;95.49
56392;BME280;76123;53.584;9.978;2024-02-21T10:25:09;101498.28;;;7.63;96.19
56392;BME280;76123;53.584;9.978;2024-02-21T10:27:36;101505.28;;;7.64;95.54
56392;BME280;76123;53.584;9.978;2024-02-21T10:30:04;101497.34;;;7.66;95.69
56392;BME280;76123;53.584;9.978;2024-02-21T10:32:30;101484.97;;;7.68;96.44
56392;BME280;76123;53.584;9.978;2024-02-21T10:35:01;101489.25;;;7.72;95.72
56392;BME280;76123;53.584;9.978;2024-02-21T10:37:30;101495.31;;;7.76;95.84
56392;BME280;76123;53.584;9.978;2024-02-21T10:39:56;101487.44;;;7.74;95.91
56392;BME280;76123;53.584;9.978;2024-02-21T10:42:28;101488.16;;;7.79;95.41
56392;BME280;76123;53.584;9.978;2024-02-21T10:45:00;101484.50;;;7.85;94.96
56392;BME280;76123;53.584;9.978;2024-02-21T10:47:28;101479.91;;;7.92;94.90
56392;BME280;76123;53.584;9.978;2024-02-21T10:50:02;101483.69;;;7.83;94.84
56392;BME280;76123;53.584;9.978;2024-02-21T10:52:32;101476.63;;;7.83;94.19
56392;BME280;76123;53.584;9.978;2024-02-21T10:55:09;101465.16;;;7.86;94.44
56392;BME280;76123;53.584;9.978;2024-02-21T10:57:38;101463.38;;;7.87;95.16
56392;BME280;76123;53.584;9.978;2024-02-21T11:00:06;101464.16;;;7.90;95.07
56392;BME280;76123;53.584;9.978;2024-02-21T11:02:35;101459.69;;;7.92;94.53
56392;BME280;76123;53.584;9.978;2024-02-21T11:05:04;101454.53;;;7.89;94.47
56392;BME280;76123;53.584;9.978;2024-02-21T11:07:31;101459.66;;;7.94;94.38
56392;BME280;76123;53.584;9.978;2024-02-21T11:09:58;101457.09;;;7.91;94.07
56392;BME280;76123;53.584;9.978;2024-02-21T11:12:25;101461.47;;;7.92;94.32
56392;BME280;76123;53.584;9.978;2024-02-21T11:15:03;101464.91;;;7.94;94.05
56392;BME280;76123;53.584;9.978;2024-02-21T11:17:30;101451.88;;;7.89;93.43
56392;BME280;76123;53.584;9.978;2024-02-21T11:19:57;101447.31;;;7.96;93.04
56392;BME280;76123;53.584;9.978;2024-02-21T11:22:24;101443.78;;;7.95;93.38
56392;BME280;76123;53.584;9.978;2024-02-21T11:24:54;101451.78;;;7.92;93.41
56392;BME280;76123;53.584;9.978;2024-02-21T11:27:22;101450.88;;;7.93;92.50
56392;BME280;76123;53.584;9.978;2024-02-21T11:29:57;101448.97;;;7.98;92.57
56392;BME280;76123;53.584;9.978;2024-02-21T11:32:25;101436.72;;;7.97;92.87
56392;BME280;76123;53.584;9.978;2024-02-21T11:34:56;101428.81;;;7.97;92.09
56392;BME280;76123;53.584;9.978;2024-02-21T11:37:27;101431.50;;;7.96;92.37
56392;BME280;76123;53.584;9.978;2024-02-21T11:39:54;101431.50;;;7.96;91.76
56392;BME280;76123;53.584;9.978;2024-02-21T11:42:21;101425.44;;;7.92;91.69
56392;BME280;76123;53.584;9.978;2024-02-21T11:44:48;101430.63;;;7.95;91.58
56392;BME280;76123;53.584;9.978;2024-02-21T11:47:15;101423.59;;;7.94;90.69
56392;BME280;76123;53.584;9.978;2024-02-21T11:49:44;101420.25;;;7.89;91.80
56392;BME280;76123;53.584;9.978;2024-02-21T11:52:12;101436.06;;;7.89;91.51
56392;BME280;76123;53.584;9.978;2024-02-21T11:54:41;101409.94;;;7.83;91.24
56392;BME280;76123;53.584;9.978;2024-02-21T11:57:08;101410.81;;;7.82;91.28
56392;BME280;76123;53.584;9.978;2024-02-21T11:59:34;101407.38;;;7.80;91.16
56392;BME280;76123;53.584;9.978;2024-02-21T12:02:01;101392.34;;;7.83;91.11
56392;BME280;76123;53.584;9.978;2024-02-21T12:04:30;101394.88;;;7.87;92.11
56392;BME280;76123;53.584;9.978;2024-02-21T12:06:57;101390.50;;;7.86;91.00
56392;BME280;76123;53.584;9.978;2024-02-21T12:09:25;101392.22;;;7.87;91.26
56392;BME280;76123;53.584;9.978;2024-02-21T12:11:58;101384.19;;;7.91;90.88
56392;BME280;76123;53.584;9.978;2024-02-21T12:14:26;101384.09;;;7.94;90.59
56392;BME280;76123;53.584;9.978;2024-02-21T12:16:53;101376.91;;;7.99;90.16
56392;BME280;76123;53.584;9.978;2024-02-21T12:19:20;101382.97;;;8.02;90.63
56392;BME280;76123;53.584;9.978;2024-02-21T12:21:49;101380.66;;;7.92;89.45
56392;BME280;76123;53.584;9.978;2024-02-21T12:24:21;101376.19;;;7.94;90.06
56392;BME280;76123;53.584;9.978;2024-02-21T12:26:48;101370.91;;;7.96;89.82
56392;BME280;76123;53.584;9.978;2024-02-21T12:29:14;101366.47;;;7.96;90.75
56392;BME280;76123;53.584;9.978;2024-02-21T12:31:41;101369.09;;;7.96;90.74
56392;BME280;76123;53.584;9.978;2024-02-21T12:34:08;101371.78;;;7.95;89.58
56392;BME280;76123;53.584;9.978;2024-02-21T12:36:36;101370.22;;;7.89;89.25
56392;BME280;76123;53.584;9.978;2024-02-21T12:39:08;101370.25;;;7.88;89.35
56392;BME280;76123;53.584;9.978;2024-02-21T12:41:35;101365.84;;;7.88;89.40
56392;BME280;76123;53.584;9.978;2024-02-21T12:44:03;101365.88;;;7.87;89.93
56392;BME280;76123;53.584;9.978;2024-02-21T12:46:32;101360.72;;;7.83;89.11
56392;BME280;76123;53.584;9.978;2024-02-21T12:48:59;101361.66;;;7.81;89.69
56392;BME280;76123;53.584;9.978;2024-02-21T12:51:25;101356.41;;;7.81;90.14
56392;BME280;76123;53.584;9.978;2024-02-21T12:53:52;101356.44;;;7.79;90.02
56392;BME280;76123;53.584;9.978;2024-02-21T12:56:20;101344.19;;;7.78;90.08
56392;BME280;76123;53.584;9.978;2024-02-21T12:58:46;101337.22;;;7.77;89.38
56392;BME280;76123;53.584;9.978;2024-02-21T13:01:13;101333.78;;;7.74;89.50